Time;durP1;ratioP1;P1;durP2;ratioP2;P2;SDS_P1;SDS_P2;PMS_P1;PMS_P2;Temp;Humidity;BMP_temperature;BMP_pressure;BME280_temperature;BME280_humidity;BME280_pressure;Samples;Min_cycle;Max_cycle;Signal;HPM_P1;HPM_P2
2021/08/30 00:00:11;;;;;;;23.77;12.52;;;;;;;;;;4896273;29;20401;-66
2021/08/30 00:02:38;;;;;;;24.80;12.13;;;;;;;;;;4895992;29;20088;-65
2021/08/30 00:05:06;;;;;;;26.77;14.35;;;;;;;;;;4896239;29;20139;-66
2021/08/30 00:07:33;;;;;;;29.20;15.27;;;;;;;;;;4897588;29;20263;-65
2021/08/30 00:10:00;;;;;;;27.95;14.95;;;;;;;;;;4899730;29;20072;-66
2021/08/30 00:12:26;;;;;;;27.27;14.35;;;;;;;;;;4899548;29;20052;-65
2021/08/30 00:14:54;;;;;;;37.72;15.55;;;;;;;;;;4899884;29;20056;-67
2021/08/30 00:17:21;;;;;;;36.72;15.75;;;;;;;;;;4899427;29;20053;-67
2021/08/30 00:19:48;;;;;;;27.38;15.02;;;;;;;;;;4899908;29;20108;-67
2021/08/30 00:22:15;;;;;;;32.25;16.05;;;;;;;;;;4899280;29;20100;-66
2021/08/30 00:24:41;;;;;;;33.42;17.70;;;;;;;;;;4899539;29;20056;-67
2021/08/30 00:27:08;;;;;;;32.03;15.48;;;;;;;;;;4899399;29;20056;-67
2021/08/30 00:29:35;;;;;;;29.50;16.08;;;;;;;;;;4899461;29;20052;-67
2021/08/30 00:32:01;;;;;;;29.23;16.10;;;;;;;;;;4899324;29;20497;-67
2021/08/30 00:34:28;;;;;;;32.53;16.83;;;;;;;;;;4899302;29;20052;-67
2021/08/30 00:36:55;;;;;;;28.73;16.38;;;;;;;;;;4899402;29;20057;-66
2021/08/30 00:39:21;;;;;;;31.33;15.88;;;;;;;;;;4899221;29;20350;-65
2021/08/30 00:41:52;;;;;;;32.97;16.95;;;;;;;;;;4899084;29;20104;-66
2021/08/30 00:44:20;;;;;;;30.50;17.30;;;;;;;;;;4899113;29;20504;-66
2021/08/30 00:46:46;;;;;;;33.05;17.05;;;;;;;;;;4897977;29;20056;-67
2021/08/30 00:49:13;;;;;;;31.50;18.20;;;;;;;;;;4899075;29;20045;-65
2021/08/30 00:51:39;;;;;;;31.08;17.77;;;;;;;;;;4899184;29;20053;-66
2021/08/30 00:54:08;;;;;;;35.38;18.58;;;;;;;;;;4897642;29;20136;-67
2021/08/30 00:56:35;;;;;;;31.25;18.45;;;;;;;;;;4882648;29;20100;-66
2021/08/30 00:59:01;;;;;;;31.15;19.10;;;;;;;;;;4898914;29;20511;-67
2021/08/30 01:01:28;;;;;;;33.75;18.77;;;;;;;;;;4898812;29;20131;-67
2021/08/30 01:03:55;;;;;;;34.80;19.52;;;;;;;;;;4898673;29;20063;-66
2021/08/30 01:06:46;;;;;;;32.85;19.13;;;;;;;;;;4898814;29;20481;-66
2021/08/30 01:09:41;;;;;;;35.38;19.48;;;;;;;;;;4897515;29;20048;-66
2021/08/30 01:12:08;;;;;;;33.33;20.05;;;;;;;;;;4898680;29;20128;-66
2021/08/30 01:15:08;;;;;;;29.52;19.50;;;;;;;;;;4898635;29;20108;-66
2021/08/30 01:17:35;;;;;;;32.03;19.80;;;;;;;;;;4894776;29;20060;-66
2021/08/30 01:20:18;;;;;;;28.55;18.23;;;;;;;;;;4881617;29;20057;-66
2021/08/30 01:22:45;;;;;;;31.50;18.23;;;;;;;;;;4882594;29;20567;-66
2021/08/30 01:25:16;;;;;;;32.22;18.10;;;;;;;;;;4898451;29;20564;-66
2021/08/30 01:27:43;;;;;;;22.83;17.02;;;;;;;;;;4897069;29;20053;-65
2021/08/30 01:30:17;;;;;;;25.33;17.42;;;;;;;;;;4898418;29;20132;-67
2021/08/30 01:32:46;;;;;;;24.95;16.13;;;;;;;;;;4882135;29;20056;-66
2021/08/30 01:35:17;;;;;;;25.77;17.27;;;;;;;;;;4897209;29;20453;-65
2021/08/30 01:37:46;;;;;;;21.90;15.90;;;;;;;;;;4897093;29;20049;-66
2021/08/30 01:40:14;;;;;;;24.95;16.65;;;;;;;;;;4898125;29;20089;-66
2021/08/30 01:42:43;;;;;;;27.52;17.02;;;;;;;;;;4896913;29;20081;-66
2021/08/30 01:45:12;;;;;;;29.50;18.27;;;;;;;;;;4897010;29;20132;-66
2021/08/30 01:47:39;;;;;;;28.13;16.42;;;;;;;;;;4896953;29;20056;-65
2021/08/30 01:50:06;;;;;;;24.92;16.05;;;;;;;;;;4896861;29;20475;-66
2021/08/30 01:52:37;;;;;;;25.58;16.17;;;;;;;;;;4881131;29;20375;-67
2021/08/30 01:55:14;;;;;;;28.63;15.88;;;;;;;;;;4881854;29;20112;-66
2021/08/30 02:00:45;;;;;;;23.25;14.48;;;;;;;;;;4882797;29;20060;-65
2021/08/30 02:03:16;;;;;;;24.05;15.30;;;;;;;;;;4897963;29;20056;-64
2021/08/30 02:05:53;;;;;;;26.35;15.95;;;;;;;;;;4896852;29;20056;-64
2021/08/30 02:08:22;;;;;;;25.20;15.73;;;;;;;;;;4897436;29;20107;-65
2021/08/30 02:10:51;;;;;;;22.95;14.63;;;;;;;;;;4897930;29;20057;-64
2021/08/30 02:13:19;;;;;;;23.60;15.73;;;;;;;;;;4897366;29;20048;-65
2021/08/30 02:15:46;;;;;;;29.77;15.77;;;;;;;;;;4897552;29;20053;-63
2021/08/30 02:18:41;;;;;;;26.45;16.70;;;;;;;;;;4897335;29;20420;-63
2021/08/30 02:21:41;;;;;;;28.73;17.00;;;;;;;;;;4896321;29;20061;-64
2021/08/30 02:24:08;;;;;;;25.00;16.58;;;;;;;;;;4896173;29;20470;-65
2021/08/30 02:26:58;;;;;;;26.80;16.52;;;;;;;;;;4896988;29;20060;-66
2021/08/30 02:29:29;;;;;;;26.25;15.98;;;;;;;;;;4896140;29;20104;-65
2021/08/30 02:31:58;;;;;;;23.30;15.15;;;;;;;;;;4895223;29;20462;-65
2021/08/30 02:34:25;;;;;;;30.45;16.20;;;;;;;;;;4880756;29;20469;-66
2021/08/30 02:36:53;;;;;;;26.83;14.70;;;;;;;;;;4896032;29;20049;-65
2021/08/30 02:39:20;;;;;;;20.60;12.88;;;;;;;;;;4895932;29;20052;-65
2021/08/30 02:41:46;;;;;;;22.55;13.90;;;;;;;;;;4895825;29;20089;-66
2021/08/30 02:44:14;;;;;;;23.45;14.20;;;;;;;;;;4895846;29;20104;-66
2021/08/30 02:46:41;;;;;;;24.42;13.73;;;;;;;;;;4895939;29;20300;-65
2021/08/30 02:49:09;;;;;;;22.00;13.88;;;;;;;;;;4895892;29;20492;-64
2021/08/30 02:51:36;;;;;;;21.70;13.25;;;;;;;;;;4880566;29;20501;-66
2021/08/30 02:54:03;;;;;;;22.48;13.18;;;;;;;;;;4880292;29;20048;-66
2021/08/30 02:56:30;;;;;;;18.95;12.65;;;;;;;;;;4880312;29;20500;-65
2021/08/30 02:58:57;;;;;;;24.55;13.23;;;;;;;;;;4896782;29;20121;-65
2021/08/30 03:01:23;;;;;;;21.83;13.65;;;;;;;;;;4880225;29;20053;-66
2021/08/30 03:03:51;;;;;;;22.00;13.68;;;;;;;;;;4895569;29;20056;-66
2021/08/30 03:06:18;;;;;;;24.02;13.50;;;;;;;;;;4895506;29;20063;-66
2021/08/30 03:08:44;;;;;;;23.60;13.40;;;;;;;;;;4880066;29;20100;-65
2021/08/30 03:11:12;;;;;;;21.52;12.68;;;;;;;;;;4896793;29;20060;-66
2021/08/30 03:13:40;;;;;;;24.15;14.77;;;;;;;;;;4895329;29;20053;-65
2021/08/30 03:16:07;;;;;;;20.92;13.60;;;;;;;;;;4896734;29;20088;-64
2021/08/30 03:18:34;;;;;;;20.30;12.93;;;;;;;;;;4896490;29;20052;-66
2021/08/30 03:21:01;;;;;;;21.15;13.55;;;;;;;;;;4895544;29;20060;-64
2021/08/30 03:23:27;;;;;;;21.48;14.10;;;;;;;;;;4896293;29;20052;-65
2021/08/30 03:25:54;;;;;;;20.13;13.23;;;;;;;;;;4895472;29;20116;-65
2021/08/30 03:28:21;;;;;;;20.15;12.48;;;;;;;;;;4897098;29;20056;-64
2021/08/30 03:30:49;;;;;;;22.05;13.57;;;;;;;;;;4879892;29;20554;-65
2021/08/30 03:33:16;;;;;;;19.23;13.65;;;;;;;;;;4894942;29;20432;-65
2021/08/30 03:35:42;;;;;;;20.25;13.98;;;;;;;;;;4895408;29;20057;-64
2021/08/30 03:38:09;;;;;;;23.33;15.15;;;;;;;;;;4879727;29;20116;-65
2021/08/30 03:40:36;;;;;;;20.92;14.27;;;;;;;;;;4896427;29;20730;-64
2021/08/30 03:43:03;;;;;;;24.15;15.75;;;;;;;;;;4897504;29;20119;-66
2021/08/30 03:45:29;;;;;;;24.05;15.73;;;;;;;;;;4883587;29;20191;-65
2021/08/30 03:47:57;;;;;;;28.75;16.77;;;;;;;;;;4896191;29;20100;-65
2021/08/30 03:50:24;;;;;;;27.45;18.08;;;;;;;;;;4917711;29;20056;-66
2021/08/30 03:52:50;;;;;;;28.92;18.67;;;;;;;;;;4905954;29;20049;-66
2021/08/30 03:55:17;;;;;;;33.63;19.13;;;;;;;;;;4864262;29;20085;-65
2021/08/30 03:57:44;;;;;;;35.03;19.20;;;;;;;;;;4864763;29;20108;-65
2021/08/30 04:00:11;;;;;;;35.78;19.40;;;;;;;;;;4880044;29;20536;-65
2021/08/30 04:02:40;;;;;;;33.47;18.48;;;;;;;;;;4880993;29;20057;-64
2021/08/30 04:05:08;;;;;;;39.88;19.98;;;;;;;;;;4882931;29;20056;-64
2021/08/30 04:07:35;;;;;;;32.20;18.65;;;;;;;;;;4901398;29;20052;-64
2021/08/30 04:10:02;;;;;;;35.83;19.92;;;;;;;;;;4894262;29;20049;-64
2021/08/30 04:12:29;;;;;;;40.85;20.40;;;;;;;;;;4879470;29;20053;-64
2021/08/30 04:14:56;;;;;;;43.05;20.05;;;;;;;;;;4885912;29;20109;-63
2021/08/30 04:17:23;;;;;;;38.10;19.30;;;;;;;;;;4890087;29;20139;-64
2021/08/30 04:19:49;;;;;;;35.47;18.65;;;;;;;;;;4897873;29;20059;-64
2021/08/30 04:22:16;;;;;;;36.90;18.38;;;;;;;;;;4893936;29;20461;-64
2021/08/30 04:24:43;;;;;;;35.42;19.27;;;;;;;;;;4882380;29;20137;-63
2021/08/30 04:27:10;;;;;;;38.17;18.77;;;;;;;;;;4899053;29;20103;-64
2021/08/30 04:29:37;;;;;;;38.97;19.10;;;;;;;;;;4895223;29;20344;-65
2021/08/30 04:32:06;;;;;;;44.17;19.55;;;;;;;;;;4895453;29;20105;-65
2021/08/30 04:34:34;;;;;;;42.67;19.23;;;;;;;;;;4883993;29;20057;-65
2021/08/30 04:37:01;;;;;;;40.88;19.45;;;;;;;;;;4898120;29;20104;-65
2021/08/30 04:39:28;;;;;;;47.90;21.52;;;;;;;;;;4899085;29;20460;-64
2021/08/30 04:41:54;;;;;;;53.97;21.90;;;;;;;;;;4899136;29;20056;-64
2021/08/30 04:44:21;;;;;;;41.38;20.92;;;;;;;;;;4898997;29;20107;-64
2021/08/30 04:46:48;;;;;;;43.70;19.50;;;;;;;;;;4897952;29;20059;-64
2021/08/30 04:49:14;;;;;;;40.08;19.15;;;;;;;;;;4898910;29;20048;-64
2021/08/30 04:51:41;;;;;;;53.58;21.13;;;;;;;;;;4890514;29;20057;-64
2021/08/30 04:54:07;;;;;;;47.35;20.70;;;;;;;;;;4879706;29;20053;-64
2021/08/30 04:56:34;;;;;;;45.80;20.63;;;;;;;;;;4880217;29;20496;-64
2021/08/30 04:59:01;;;;;;;45.35;20.10;;;;;;;;;;4880138;29;20045;-64
2021/08/30 05:01:27;;;;;;;44.53;19.30;;;;;;;;;;4881114;29;20053;-63
2021/08/30 05:03:54;;;;;;;42.55;19.50;;;;;;;;;;4880182;29;20470;-65
2021/08/30 05:06:21;;;;;;;28.75;15.15;;;;;;;;;;4880048;29;20101;-64
2021/08/30 05:08:47;;;;;;;32.00;16.40;;;;;;;;;;4880164;29;20123;-64
2021/08/30 05:11:14;;;;;;;33.63;15.15;;;;;;;;;;4889889;29;20116;-64
2021/08/30 05:13:41;;;;;;;33.65;15.73;;;;;;;;;;4898560;29;20060;-65
2021/08/30 05:16:07;;;;;;;32.85;15.75;;;;;;;;;;4898631;29;20084;-64
2021/08/30 05:18:35;;;;;;;28.55;15.60;;;;;;;;;;4898437;29;20056;-64
2021/08/30 05:21:02;;;;;;;30.15;15.20;;;;;;;;;;4889853;29;20112;-64
2021/08/30 05:23:28;;;;;;;31.35;16.10;;;;;;;;;;4879569;29;20890;-65
2021/08/30 05:25:55;;;;;;;27.80;15.43;;;;;;;;;;4879845;29;20049;-64
2021/08/30 05:28:22;;;;;;;25.27;14.63;;;;;;;;;;4879563;29;20263;-64
2021/08/30 05:30:48;;;;;;;29.15;16.23;;;;;;;;;;4885705;29;20112;-64
2021/08/30 05:33:15;;;;;;;30.27;14.77;;;;;;;;;;4897787;29;20485;-64
2021/08/30 05:35:41;;;;;;;30.17;15.73;;;;;;;;;;4898401;29;20112;-64
2021/08/30 05:38:08;;;;;;;26.35;14.98;;;;;;;;;;4898270;29;20052;-64
2021/08/30 05:40:35;;;;;;;32.67;15.43;;;;;;;;;;4893350;29;20078;-65
2021/08/30 05:43:01;;;;;;;25.90;14.90;;;;;;;;;;4879280;29;20405;-64
2021/08/30 05:45:28;;;;;;;23.30;14.07;;;;;;;;;;4879360;29;20109;-64
2021/08/30 05:47:55;;;;;;;25.50;14.38;;;;;;;;;;4876945;29;20085;-64
2021/08/30 05:50:21;;;;;;;23.13;15.57;;;;;;;;;;4879770;29;20394;-64
2021/08/30 05:52:48;;;;;;;25.17;15.07;;;;;;;;;;4895921;29;20048;-64
2021/08/30 05:55:16;;;;;;;24.08;14.05;;;;;;;;;;4896186;29;20059;-64
2021/08/30 05:57:43;;;;;;;24.63;15.20;;;;;;;;;;4896022;29;20457;-64
2021/08/30 06:00:10;;;;;;;23.55;14.70;;;;;;;;;;4895243;29;20052;-64
2021/08/30 06:02:37;;;;;;;23.90;14.07;;;;;;;;;;4895414;29;20107;-65
2021/08/30 06:05:04;;;;;;;23.98;14.50;;;;;;;;;;4895903;29;20083;-65
2021/08/30 06:07:31;;;;;;;23.35;14.95;;;;;;;;;;4895814;29;20501;-65
2021/08/30 06:09:57;;;;;;;24.77;14.80;;;;;;;;;;4881855;29;20061;-64
2021/08/30 06:12:24;;;;;;;24.80;14.93;;;;;;;;;;4876231;29;20060;-67
2021/08/30 06:14:50;;;;;;;26.13;15.23;;;;;;;;;;4876969;29;20376;-64
2021/08/30 06:17:17;;;;;;;23.30;15.77;;;;;;;;;;4876782;29;20057;-64
2021/08/30 06:19:44;;;;;;;22.65;14.77;;;;;;;;;;4888688;29;20053;-64
2021/08/30 06:22:10;;;;;;;24.42;15.65;;;;;;;;;;4894241;29;20056;-65
2021/08/30 06:24:40;;;;;;;20.52;14.98;;;;;;;;;;4895387;29;20056;-66
2021/08/30 06:27:07;;;;;;;19.95;14.38;;;;;;;;;;4895192;29;20060;-63
2021/08/30 06:29:34;;;;;;;19.60;14.90;;;;;;;;;;4884211;29;20112;-65
2021/08/30 06:32:00;;;;;;;24.30;15.27;;;;;;;;;;4876606;29;20112;-65
2021/08/30 06:34:27;;;;;;;17.70;13.05;;;;;;;;;;4876598;29;20061;-65
2021/08/30 06:36:54;;;;;;;14.90;11.90;;;;;;;;;;4876372;29;20121;-65
2021/08/30 06:39:20;;;;;;;17.20;11.85;;;;;;;;;;4884405;29;20568;-67
2021/08/30 06:41:47;;;;;;;19.60;13.55;;;;;;;;;;4895080;29;20052;-65
2021/08/30 06:44:13;;;;;;;15.48;11.82;;;;;;;;;;4892970;29;20088;-65
2021/08/30 06:46:40;;;;;;;15.25;11.43;;;;;;;;;;4888800;29;20060;-65
2021/08/30 06:49:07;;;;;;;15.35;12.63;;;;;;;;;;4894971;29;20079;-64
2021/08/30 06:51:33;;;;;;;13.00;10.85;;;;;;;;;;4880707;29;20148;-65
2021/08/30 06:54:00;;;;;;;14.52;11.23;;;;;;;;;;4885999;29;20100;-64
2021/08/30 06:56:27;;;;;;;14.70;11.10;;;;;;;;;;4880555;29;20060;-65
2021/08/30 06:58:53;;;;;;;15.55;11.05;;;;;;;;;;4882226;29;20049;-65
2021/08/30 07:01:20;;;;;;;15.90;12.45;;;;;;;;;;4882422;29;20052;-64
2021/08/30 07:03:51;;;;;;;15.35;13.63;;;;;;;;;;4880109;29;20049;-66
2021/08/30 07:06:18;;;;;;;16.10;13.15;;;;;;;;;;4886071;29;20124;-66
2021/08/30 07:08:45;;;;;;;16.50;11.88;;;;;;;;;;4881307;29;20061;-65
2021/08/30 07:11:12;;;;;;;13.25;11.35;;;;;;;;;;4885289;29;20576;-64
2021/08/30 07:13:38;;;;;;;15.25;11.82;;;;;;;;;;4881480;29;20513;-64
2021/08/30 07:16:05;;;;;;;13.80;10.48;;;;;;;;;;4881153;29;20061;-62
2021/08/30 07:18:31;;;;;;;12.57;10.75;;;;;;;;;;4880054;29;20068;-64
2021/08/30 07:20:58;;;;;;;15.68;11.27;;;;;;;;;;4882750;29;20129;-62
2021/08/30 07:23:25;;;;;;;13.82;10.70;;;;;;;;;;4879573;29;20108;-62
2021/08/30 07:25:51;;;;;;;16.60;11.82;;;;;;;;;;4883695;29;20273;-63
2021/08/30 07:28:18;;;;;;;14.18;10.90;;;;;;;;;;4882844;29;20056;-67
2021/08/30 07:30:44;;;;;;;17.05;11.50;;;;;;;;;;4879980;29;20049;-64
2021/08/30 07:33:11;;;;;;;12.85;11.18;;;;;;;;;;4884490;29;20109;-68
2021/08/30 07:35:38;;;;;;;18.05;12.23;;;;;;;;;;4880189;29;20073;-69
2021/08/30 07:38:05;;;;;;;15.82;12.80;;;;;;;;;;4882331;29;20053;-65
2021/08/30 07:40:31;;;;;;;13.23;11.70;;;;;;;;;;4880034;29;20497;-66
2021/08/30 07:42:58;;;;;;;14.93;11.27;;;;;;;;;;4881300;29;20323;-67
2021/08/30 07:45:25;;;;;;;16.45;12.57;;;;;;;;;;4880984;29;20508;-64
2021/08/30 07:47:51;;;;;;;14.27;11.80;;;;;;;;;;4882451;29;20048;-64
2021/08/30 07:50:19;;;;;;;15.85;12.35;;;;;;;;;;4881928;29;20053;-64
2021/08/30 07:52:45;;;;;;;14.07;11.30;;;;;;;;;;4881929;29;20080;-64
2021/08/30 07:55:13;;;;;;;13.35;11.95;;;;;;;;;;4880695;29;20060;-65
2021/08/30 07:57:40;;;;;;;12.50;10.13;;;;;;;;;;4881174;29;20117;-64
2021/08/30 08:00:07;;;;;;;13.93;11.80;;;;;;;;;;4880928;29;20081;-66
2021/08/30 08:02:33;;;;;;;9.50;8.55;;;;;;;;;;4881184;29;20114;-64
2021/08/30 08:05:00;;;;;;;11.38;8.98;;;;;;;;;;4883943;29;20084;-64
2021/08/30 08:07:27;;;;;;;12.48;9.57;;;;;;;;;;4882002;29;20120;-64
2021/08/30 08:09:53;;;;;;;12.23;10.00;;;;;;;;;;4884016;29;20105;-65
2021/08/30 08:12:20;;;;;;;13.25;10.18;;;;;;;;;;4879741;29;20052;-65
2021/08/30 08:14:47;;;;;;;15.98;9.65;;;;;;;;;;4883818;29;20465;-66
2021/08/30 08:17:14;;;;;;;11.32;8.88;;;;;;;;;;4882334;29;20061;-65
2021/08/30 08:19:40;;;;;;;12.35;10.20;;;;;;;;;;4885005;29;20056;-64
2021/08/30 08:22:07;;;;;;;12.88;10.25;;;;;;;;;;4882549;29;20053;-66
2021/08/30 08:24:34;;;;;;;10.98;8.98;;;;;;;;;;4883829;29;20104;-65
2021/08/30 08:27:00;;;;;;;11.30;9.73;;;;;;;;;;4881872;29;20053;-64
2021/08/30 08:29:27;;;;;;;10.93;8.07;;;;;;;;;;4884963;29;20108;-65
2021/08/30 08:31:54;;;;;;;9.48;8.32;;;;;;;;;;4885302;29;20501;-66
2021/08/30 08:34:20;;;;;;;10.30;7.43;;;;;;;;;;4886504;29;20052;-65
2021/08/30 08:36:47;;;;;;;10.45;7.93;;;;;;;;;;4886092;29;20076;-65
2021/08/30 08:39:13;;;;;;;9.55;7.97;;;;;;;;;;4886883;29;20116;-66
2021/08/30 08:41:40;;;;;;;9.23;7.53;;;;;;;;;;4885894;29;20045;-65
2021/08/30 08:44:08;;;;;;;8.57;6.68;;;;;;;;;;4885864;29;20052;-65
2021/08/30 08:46:38;;;;;;;7.68;6.78;;;;;;;;;;4887153;29;20048;-65
2021/08/30 08:49:05;;;;;;;9.82;8.65;;;;;;;;;;4884759;29;20049;-65
2021/08/30 08:51:33;;;;;;;10.70;7.60;;;;;;;;;;4889083;29;20101;-66
2021/08/30 08:54:00;;;;;;;10.05;8.85;;;;;;;;;;4899227;29;20132;-66
2021/08/30 08:56:27;;;;;;;12.27;8.60;;;;;;;;;;4886483;29;20056;-65
2021/08/30 08:58:54;;;;;;;9.57;8.48;;;;;;;;;;4887538;29;20124;-66
2021/08/30 09:01:25;;;;;;;11.57;9.65;;;;;;;;;;4886673;29;20048;-65
2021/08/30 09:03:56;;;;;;;10.25;8.95;;;;;;;;;;4885137;29;20497;-66
2021/08/30 09:06:27;;;;;;;10.32;7.70;;;;;;;;;;4885371;29;20117;-67
2021/08/30 09:09:03;;;;;;;8.85;7.88;;;;;;;;;;4888542;29;20045;-66
2021/08/30 09:11:45;;;;;;;10.00;8.25;;;;;;;;;;4884811;29;20057;-67
2021/08/30 09:14:19;;;;;;;9.55;8.20;;;;;;;;;;4887815;29;20702;-67
2021/08/30 09:16:47;;;;;;;10.70;8.65;;;;;;;;;;4886477;29;20504;-67
2021/08/30 09:19:17;;;;;;;10.45;8.73;;;;;;;;;;4883000;29;20101;-67
2021/08/30 09:21:48;;;;;;;12.13;9.18;;;;;;;;;;4887305;29;20096;-66
2021/08/30 09:24:20;;;;;;;10.10;8.07;;;;;;;;;;4885462;29;20100;-67
2021/08/30 09:27:08;;;;;;;11.40;9.00;;;;;;;;;;4884447;29;20049;-67
2021/08/30 09:29:39;;;;;;;9.45;8.13;;;;;;;;;;4890380;29;20061;-67
2021/08/30 09:32:10;;;;;;;10.68;8.40;;;;;;;;;;4886500;29;20109;-68
2021/08/30 09:34:50;;;;;;;9.32;8.05;;;;;;;;;;4887248;29;20112;-68
2021/08/30 09:37:19;;;;;;;14.50;8.77;;;;;;;;;;4887457;29;20053;-67
2021/08/30 09:39:56;;;;;;;10.15;8.45;;;;;;;;;;4886599;29;20420;-71
2021/08/30 09:42:23;;;;;;;11.43;9.45;;;;;;;;;;4883828;29;20506;-67
2021/08/30 09:44:50;;;;;;;11.98;9.00;;;;;;;;;;4886212;29;20052;-69
2021/08/30 09:47:19;;;;;;;12.95;9.82;;;;;;;;;;4884510;29;20501;-74
2021/08/30 09:49:53;;;;;;;13.20;10.82;;;;;;;;;;4902214;29;20052;-76
2021/08/30 09:52:20;;;;;;;14.43;10.85;;;;;;;;;;4884964;29;20417;-74
2021/08/30 09:54:47;;;;;;;13.80;11.02;;;;;;;;;;4884197;29;20557;-78
2021/08/30 09:57:15;;;;;;;12.60;10.25;;;;;;;;;;4889818;29;20053;-71
2021/08/30 09:59:43;;;;;;;11.38;9.45;;;;;;;;;;4902057;29;20053;-72
2021/08/30 10:02:17;;;;;;;11.55;9.32;;;;;;;;;;4901067;29;20059;-79
2021/08/30 10:04:46;;;;;;;13.18;10.68;;;;;;;;;;4884604;29;20461;-73
2021/08/30 10:07:17;;;;;;;9.35;8.05;;;;;;;;;;4883280;29;20105;-72
2021/08/30 10:09:43;;;;;;;16.20;10.52;;;;;;;;;;4884702;29;20048;-72
2021/08/30 10:12:10;;;;;;;11.00;8.75;;;;;;;;;;4883618;29;20059;-78
2021/08/30 10:14:38;;;;;;;13.05;8.88;;;;;;;;;;4886438;29;20045;-73
2021/08/30 10:17:05;;;;;;;10.13;8.23;;;;;;;;;;4899247;29;20053;-72
2021/08/30 10:19:34;;;;;;;10.60;8.77;;;;;;;;;;4900581;29;20056;-72
2021/08/30 10:22:14;;;;;;;9.70;8.70;;;;;;;;;;4883950;29;20049;-76
2021/08/30 10:24:42;;;;;;;10.05;9.00;;;;;;;;;;4905873;29;20056;-73
2021/08/30 10:27:10;;;;;;;21.23;8.93;;;;;;;;;;4885176;29;20104;-74
2021/08/30 10:29:41;;;;;;;11.35;9.77;;;;;;;;;;4876216;29;20060;-71
2021/08/30 10:32:22;;;;;;;12.30;8.88;;;;;;;;;;4885948;29;20056;-71
2021/08/30 10:34:53;;;;;;;10.10;8.55;;;;;;;;;;4884183;29;20081;-71
2021/08/30 10:37:21;;;;;;;11.13;9.27;;;;;;;;;;4882364;29;20159;-76
2021/08/30 10:39:54;;;;;;;10.57;9.00;;;;;;;;;;4881366;29;20547;-69
2021/08/30 10:42:22;;;;;;;10.70;9.57;;;;;;;;;;4885613;29;20099;-69
2021/08/30 10:44:55;;;;;;;12.32;10.60;;;;;;;;;;4882588;29;20052;-70
2021/08/30 10:47:22;;;;;;;;;;;;;;;;;;4884559;29;20056;-70
2021/08/30 10:49:51;;;;;;;14.30;9.93;;;;;;;;;;4886983;29;19931;-72
2021/08/30 10:52:19;;;;;;;13.18;11.43;;;;;;;;;;4883522;29;20073;-73
2021/08/30 10:54:54;;;;;;;14.20;10.60;;;;;;;;;;4882880;29;20049;-72
2021/08/30 10:57:39;;;;;;;11.35;9.73;;;;;;;;;;4884412;29;20068;-69
2021/08/30 11:00:08;;;;;;;12.95;9.07;;;;;;;;;;4878875;29;20057;-68
2021/08/30 11:02:38;;;;;;;10.25;8.40;;;;;;;;;;4885954;29;20115;-68
2021/08/30 11:05:08;;;;;;;9.57;7.10;;;;;;;;;;4884686;29;20095;-70
2021/08/30 11:07:36;;;;;;;9.73;7.05;;;;;;;;;;4882498;29;20497;-68
2021/08/30 11:10:05;;;;;;;9.65;8.20;;;;;;;;;;4885422;29;20096;-69
2021/08/30 11:12:31;;;;;;;10.27;7.53;;;;;;;;;;4883009;29;20097;-69
2021/08/30 11:14:58;;;;;;;11.10;7.70;;;;;;;;;;4883595;29;20056;-69
2021/08/30 11:17:36;;;;;;;11.93;8.10;;;;;;;;;;4883517;29;20045;-69
2021/08/30 11:20:04;;;;;;;8.80;7.90;;;;;;;;;;4883693;29;20057;-69
2021/08/30 11:22:30;;;;;;;8.43;7.63;;;;;;;;;;4884011;29;20049;-71
2021/08/30 11:25:02;;;;;;;9.27;8.15;;;;;;;;;;4882606;29;20056;-70
2021/08/30 11:27:32;;;;;;;10.07;8.50;;;;;;;;;;4886035;29;20057;-69
2021/08/30 11:30:12;;;;;;;10.60;8.38;;;;;;;;;;4884472;29;20048;-70
2021/08/30 11:32:40;;;;;;;9.40;8.35;;;;;;;;;;4884519;29;20053;-70
2021/08/30 11:35:13;;;;;;;12.15;8.10;;;;;;;;;;4884747;29;20572;-71
2021/08/30 11:37:41;;;;;;;9.63;8.63;;;;;;;;;;4880782;29;20523;-71
2021/08/30 11:40:10;;;;;;;12.20;9.50;;;;;;;;;;4879490;29;20061;-71
2021/08/30 11:42:38;;;;;;;10.73;9.60;;;;;;;;;;4881982;29;20422;-71
2021/08/30 11:45:08;;;;;;;13.18;9.50;;;;;;;;;;4880201;29;20064;-71
2021/08/30 11:47:35;;;;;;;11.57;9.90;;;;;;;;;;4884025;29;20501;-71
2021/08/30 11:50:05;;;;;;;15.48;10.15;;;;;;;;;;4879988;29;20057;-68
2021/08/30 11:52:34;;;;;;;12.43;10.40;;;;;;;;;;4881622;29;20052;-67
2021/08/30 11:55:08;;;;;;;11.50;9.50;;;;;;;;;;4880703;29;20057;-67
2021/08/30 11:57:47;;;;;;;13.00;9.80;;;;;;;;;;4882701;29;20112;-67
2021/08/30 12:00:22;;;;;;;15.98;12.40;;;;;;;;;;4882006;29;20207;-67
2021/08/30 12:03:00;;;;;;;16.10;11.13;;;;;;;;;;4881482;29;20124;-67
2021/08/30 12:05:29;;;;;;;13.80;10.73;;;;;;;;;;4886659;29;20061;-70
2021/08/30 12:07:57;;;;;;;15.27;10.55;;;;;;;;;;4886634;29;20059;-70
2021/08/30 12:10:26;;;;;;;13.07;10.55;;;;;;;;;;4883765;29;20060;-70
2021/08/30 12:15:25;;;;;;;15.43;12.38;;;;;;;;;;4892544;29;20052;-69
2021/08/30 12:17:56;;;;;;;14.15;11.48;;;;;;;;;;4886288;29;20121;-69
2021/08/30 12:20:30;;;;;;;13.43;10.25;;;;;;;;;;4889402;29;20056;-68
2021/08/30 12:22:59;;;;;;;14.43;9.63;;;;;;;;;;4883736;29;20056;-71
2021/08/30 12:25:31;;;;;;;11.70;9.25;;;;;;;;;;4886480;29;20048;-71
2021/08/30 12:27:58;;;;;;;10.95;9.52;;;;;;;;;;4887022;29;20064;-68
2021/08/30 12:30:32;;;;;;;11.75;8.95;;;;;;;;;;4886443;29;20573;-68
2021/08/30 12:32:58;;;;;;;12.60;9.73;;;;;;;;;;4890503;29;20057;-69
2021/08/30 12:35:26;;;;;;;12.38;9.90;;;;;;;;;;4885223;29;20057;-69
2021/08/30 12:37:54;;;;;;;13.75;10.10;;;;;;;;;;4887073;29;20131;-69
2021/08/30 12:40:21;;;;;;;11.98;9.48;;;;;;;;;;4884923;29;20393;-69
2021/08/30 12:42:48;;;;;;;11.20;9.55;;;;;;;;;;4886892;29;20055;-69
2021/08/30 12:45:15;;;;;;;10.70;9.48;;;;;;;;;;4885140;29;20466;-69
2021/08/30 12:47:42;;;;;;;12.43;10.00;;;;;;;;;;4889501;29;20052;-69
2021/08/30 12:50:09;;;;;;;12.43;9.32;;;;;;;;;;4885447;29;20060;-69
2021/08/30 12:52:36;;;;;;;11.40;9.88;;;;;;;;;;4886000;29;20108;-70
2021/08/30 12:55:07;;;;;;;11.10;9.30;;;;;;;;;;4886032;29;20053;-67
2021/08/30 12:57:34;;;;;;;11.02;9.52;;;;;;;;;;4885001;29;20125;-68
2021/08/30 13:00:02;;;;;;;11.15;9.10;;;;;;;;;;4888406;29;20101;-71
2021/08/30 13:02:28;;;;;;;10.30;8.57;;;;;;;;;;4888058;29;20519;-69
2021/08/30 13:04:55;;;;;;;11.18;8.57;;;;;;;;;;4887125;29;20136;-67
2021/08/30 13:07:22;;;;;;;9.90;8.07;;;;;;;;;;4884612;29;20105;-69
2021/08/30 13:09:49;;;;;;;10.80;8.00;;;;;;;;;;4885396;29;20065;-69
2021/08/30 13:12:15;;;;;;;11.73;9.18;;;;;;;;;;4882933;29;20480;-69
2021/08/30 13:14:42;;;;;;;10.93;9.25;;;;;;;;;;4886165;29;20104;-70
2021/08/30 13:17:09;;;;;;;11.90;9.45;;;;;;;;;;4884629;29;20109;-69
2021/08/30 13:19:36;;;;;;;12.35;9.25;;;;;;;;;;4884934;29;20112;-70
2021/08/30 13:22:03;;;;;;;10.23;8.77;;;;;;;;;;4888673;29;20115;-70
2021/08/30 13:24:29;;;;;;;10.60;9.43;;;;;;;;;;4885739;29;20088;-69
2021/08/30 13:26:56;;;;;;;11.90;8.82;;;;;;;;;;4891908;29;20057;-71
2021/08/30 13:29:23;;;;;;;7.82;7.00;;;;;;;;;;4886084;29;20052;-71
2021/08/30 13:31:49;;;;;;;9.02;7.35;;;;;;;;;;4885110;29;20045;-68
2021/08/30 13:34:16;;;;;;;7.85;6.85;;;;;;;;;;4885602;29;20081;-69
2021/08/30 13:36:43;;;;;;;9.57;7.28;;;;;;;;;;4885372;29;20044;-70
2021/08/30 13:39:09;;;;;;;6.97;6.28;;;;;;;;;;4886950;29;20270;-71
2021/08/30 13:41:36;;;;;;;5.75;5.15;;;;;;;;;;4885461;29;20049;-70
2021/08/30 13:44:03;;;;;;;8.70;4.40;;;;;;;;;;4883832;29;20049;-69
2021/08/30 13:46:29;;;;;;;5.28;4.78;;;;;;;;;;4891621;29;20101;-68
2021/08/30 13:48:56;;;;;;;4.90;4.22;;;;;;;;;;4884139;29;20045;-67
2021/08/30 13:51:23;;;;;;;5.28;4.43;;;;;;;;;;4885722;29;20048;-68
2021/08/30 13:53:49;;;;;;;4.97;4.47;;;;;;;;;;4883817;29;20088;-69
2021/08/30 13:56:16;;;;;;;5.38;4.85;;;;;;;;;;4885753;29;20123;-68
2021/08/30 13:58:43;;;;;;;7.30;5.38;;;;;;;;;;4884097;29;20061;-68
2021/08/30 14:01:13;;;;;;;6.30;5.25;;;;;;;;;;4886841;29;20053;-68
2021/08/30 14:03:40;;;;;;;26.70;16.00;;;;;;;;;;4884859;29;20572;-69
2021/08/30 14:06:06;;;;;;;15.25;9.95;;;;;;;;;;4885209;29;20053;-71
2021/08/30 14:08:36;;;;;;;9.38;5.47;;;;;;;;;;4885355;29;20080;-75
2021/08/30 14:11:14;;;;;;;6.38;4.25;;;;;;;;;;4883981;29;20076;-72
2021/08/30 14:13:40;;;;;;;4.25;3.30;;;;;;;;;;4885642;29;20395;-72
2021/08/30 14:16:10;;;;;;;4.20;3.30;;;;;;;;;;4885524;29;20075;-71
2021/08/30 14:18:38;;;;;;;4.75;3.75;;;;;;;;;;4889719;29;20056;-70
2021/08/30 14:21:04;;;;;;;4.60;2.95;;;;;;;;;;4884797;29;20409;-69
2021/08/30 14:23:32;;;;;;;5.93;4.18;;;;;;;;;;4885009;29;20495;-69
2021/08/30 14:25:59;;;;;;;5.53;4.55;;;;;;;;;;4885582;29;20685;-67
2021/08/30 14:28:28;;;;;;;4.88;4.25;;;;;;;;;;4884520;29;20065;-67
2021/08/30 14:30:55;;;;;;;5.72;5.18;;;;;;;;;;4885928;29;20061;-67
2021/08/30 14:33:22;;;;;;;6.03;5.43;;;;;;;;;;4884295;29;20109;-67
2021/08/30 14:36:09;;;;;;;7.05;6.13;;;;;;;;;;4885637;29;20112;-67